sensor_id;sensor_type;location;lat;lon;timestamp;P1;durP1;ratioP1;P2;durP2;ratioP2
78555;SDS011;67851;51.354;7.744;2024-01-30T00:00:18;15.27;;;8.80;;
78555;SDS011;67851;51.354;7.744;2024-01-30T00:02:45;21.10;;;9.73;;
78555;SDS011;67851;51.354;7.744;2024-01-30T00:05:12;18.50;;;10.38;;
78555;SDS011;67851;51.354;7.744;2024-01-30T00:07:38;20.70;;;9.73;;
78555;SDS011;67851;51.354;7.744;2024-01-30T00:10:06;15.13;;;10.38;;
78555;SDS011;67851;51.354;7.744;2024-01-30T00:12:33;16.48;;;9.65;;
78555;SDS011;67851;51.354;7.744;2024-01-30T00:15:00;17.88;;;10.27;;
78555;SDS011;67851;51.354;7.744;2024-01-30T00:17:27;18.73;;;11.05;;
78555;SDS011;67851;51.354;7.744;2024-01-30T00:19:54;17.77;;;10.57;;
78555;SDS011;67851;51.354;7.744;2024-01-30T00:22:21;19.17;;;10.65;;
78555;SDS011;67851;51.354;7.744;2024-01-30T00:24:47;16.40;;;10.45;;
78555;SDS011;67851;51.354;7.744;2024-01-30T00:27:14;17.63;;;11.00;;
78555;SDS011;67851;51.354;7.744;2024-01-30T00:29:41;17.52;;;10.60;;
78555;SDS011;67851;51.354;7.744;2024-01-30T00:32:08;20.98;;;10.60;;
78555;SDS011;67851;51.354;7.744;2024-01-30T00:34:35;19.80;;;11.30;;
78555;SDS011;67851;51.354;7.744;2024-01-30T00:37:01;17.67;;;9.70;;
78555;SDS011;67851;51.354;7.744;2024-01-30T00:39:29;20.60;;;10.40;;
78555;SDS011;67851;51.354;7.744;2024-01-30T00:41:55;15.95;;;9.48;;
78555;SDS011;67851;51.354;7.744;2024-01-30T00:44:23;18.58;;;10.40;;
78555;SDS011;67851;51.354;7.744;2024-01-30T00:46:49;16.30;;;10.10;;
78555;SDS011;67851;51.354;7.744;2024-01-30T00:49:16;18.55;;;11.27;;
78555;SDS011;67851;51.354;7.744;2024-01-30T00:51:44;16.50;;;11.07;;
78555;SDS011;67851;51.354;7.744;2024-01-30T00:54:11;18.90;;;10.63;;
78555;SDS011;67851;51.354;7.744;2024-01-30T00:56:38;25.38;;;10.73;;
78555;SDS011;67851;51.354;7.744;2024-01-30T00:59:05;18.40;;;11.20;;
78555;SDS011;67851;51.354;7.744;2024-01-30T01:01:31;22.02;;;10.60;;
78555;SDS011;67851;51.354;7.744;2024-01-30T01:03:58;23.33;;;13.80;;
78555;SDS011;67851;51.354;7.744;2024-01-30T01:06:25;17.88;;;10.93;;
78555;SDS011;67851;51.354;7.744;2024-01-30T01:08:52;21.15;;;10.98;;
78555;SDS011;67851;51.354;7.744;2024-01-30T01:11:19;19.10;;;10.38;;
78555;SDS011;67851;51.354;7.744;2024-01-30T01:13:45;19.00;;;11.60;;
78555;SDS011;67851;51.354;7.744;2024-01-30T01:16:12;20.80;;;12.82;;
78555;SDS011;67851;51.354;7.744;2024-01-30T01:18:39;20.45;;;10.80;;
78555;SDS011;67851;51.354;7.744;2024-01-30T01:21:06;17.90;;;11.57;;
78555;SDS011;67851;51.354;7.744;2024-01-30T01:23:34;24.77;;;11.85;;
78555;SDS011;67851;51.354;7.744;2024-01-30T01:26:00;20.75;;;11.73;;
78555;SDS011;67851;51.354;7.744;2024-01-30T01:28:27;24.60;;;12.77;;
78555;SDS011;67851;51.354;7.744;2024-01-30T01:30:54;21.67;;;12.25;;
78555;SDS011;67851;51.354;7.744;2024-01-30T01:33:25;28.63;;;12.40;;
78555;SDS011;67851;51.354;7.744;2024-01-30T01:35:52;20.58;;;11.23;;
78555;SDS011;67851;51.354;7.744;2024-01-30T01:38:19;25.42;;;11.07;;
78555;SDS011;67851;51.354;7.744;2024-01-30T01:40:46;20.20;;;11.90;;
78555;SDS011;67851;51.354;7.744;2024-01-30T01:43:13;17.67;;;11.15;;
78555;SDS011;67851;51.354;7.744;2024-01-30T01:45:40;19.70;;;11.13;;
78555;SDS011;67851;51.354;7.744;2024-01-30T01:48:07;21.83;;;10.70;;
78555;SDS011;67851;51.354;7.744;2024-01-30T01:50:35;18.50;;;11.23;;
78555;SDS011;67851;51.354;7.744;2024-01-30T01:53:02;16.17;;;10.90;;
78555;SDS011;67851;51.354;7.744;2024-01-30T01:55:29;21.42;;;10.63;;
78555;SDS011;67851;51.354;7.744;2024-01-30T01:57:58;18.45;;;10.63;;
78555;SDS011;67851;51.354;7.744;2024-01-30T02:00:25;22.02;;;11.05;;
78555;SDS011;67851;51.354;7.744;2024-01-30T02:02:53;15.70;;;9.82;;
78555;SDS011;67851;51.354;7.744;2024-01-30T02:05:21;18.02;;;10.13;;
78555;SDS011;67851;51.354;7.744;2024-01-30T02:07:48;21.35;;;11.10;;
78555;SDS011;67851;51.354;7.744;2024-01-30T02:10:17;17.92;;;10.73;;
78555;SDS011;67851;51.354;7.744;2024-01-30T02:12:45;18.25;;;10.73;;
78555;SDS011;67851;51.354;7.744;2024-01-30T02:15:13;18.55;;;9.55;;
78555;SDS011;67851;51.354;7.744;2024-01-30T02:17:40;15.85;;;9.90;;
78555;SDS011;67851;51.354;7.744;2024-01-30T02:20:07;18.80;;;9.00;;
78555;SDS011;67851;51.354;7.744;2024-01-30T02:22:35;21.02;;;10.55;;
78555;SDS011;67851;51.354;7.744;2024-01-30T02:25:02;17.10;;;10.25;;
78555;SDS011;67851;51.354;7.744;2024-01-30T02:27:29;22.63;;;10.65;;
78555;SDS011;67851;51.354;7.744;2024-01-30T02:29:56;16.67;;;9.65;;
78555;SDS011;67851;51.354;7.744;2024-01-30T02:32:23;15.98;;;9.55;;
78555;SDS011;67851;51.354;7.744;2024-01-30T02:34:49;18.67;;;10.55;;
78555;SDS011;67851;51.354;7.744;2024-01-30T02:37:21;16.52;;;9.50;;
78555;SDS011;67851;51.354;7.744;2024-01-30T02:39:48;17.30;;;9.80;;
78555;SDS011;67851;51.354;7.744;2024-01-30T02:42:17;15.75;;;9.75;;
78555;SDS011;67851;51.354;7.744;2024-01-30T02:44:46;16.42;;;9.38;;
78555;SDS011;67851;51.354;7.744;2024-01-30T02:47:15;15.82;;;8.52;;
78555;SDS011;67851;51.354;7.744;2024-01-30T02:49:42;16.70;;;9.70;;
78555;SDS011;67851;51.354;7.744;2024-01-30T02:52:09;14.85;;;8.68;;
78555;SDS011;67851;51.354;7.744;2024-01-30T02:54:35;16.08;;;9.07;;
78555;SDS011;67851;51.354;7.744;2024-01-30T02:57:02;18.02;;;8.73;;
78555;SDS011;67851;51.354;7.744;2024-01-30T02:59:29;15.60;;;8.30;;
78555;SDS011;67851;51.354;7.744;2024-01-30T03:01:56;17.33;;;8.38;;
78555;SDS011;67851;51.354;7.744;2024-01-30T03:04:23;17.25;;;8.48;;
78555;SDS011;67851;51.354;7.744;2024-01-30T03:06:50;12.80;;;8.57;;
78555;SDS011;67851;51.354;7.744;2024-01-30T03:09:17;15.95;;;8.48;;
78555;SDS011;67851;51.354;7.744;2024-01-30T03:11:46;17.00;;;8.10;;
78555;SDS011;67851;51.354;7.744;2024-01-30T03:14:12;14.63;;;7.82;;
78555;SDS011;67851;51.354;7.744;2024-01-30T03:16:39;16.10;;;7.78;;
78555;SDS011;67851;51.354;7.744;2024-01-30T03:19:06;15.75;;;8.70;;
78555;SDS011;67851;51.354;7.744;2024-01-30T03:21:36;13.85;;;8.85;;
78555;SDS011;67851;51.354;7.744;2024-01-30T03:24:03;16.55;;;8.50;;
78555;SDS011;67851;51.354;7.744;2024-01-30T03:26:29;16.20;;;7.85;;
78555;SDS011;67851;51.354;7.744;2024-01-30T03:28:56;15.88;;;9.60;;
78555;SDS011;67851;51.354;7.744;2024-01-30T03:31:23;13.43;;;8.32;;
78555;SDS011;67851;51.354;7.744;2024-01-30T03:33:50;17.17;;;8.50;;
78555;SDS011;67851;51.354;7.744;2024-01-30T03:36:17;13.68;;;7.65;;
78555;SDS011;67851;51.354;7.744;2024-01-30T03:38:44;16.38;;;8.38;;
78555;SDS011;67851;51.354;7.744;2024-01-30T03:41:11;14.27;;;8.60;;
78555;SDS011;67851;51.354;7.744;2024-01-30T03:43:38;14.60;;;8.20;;
78555;SDS011;67851;51.354;7.744;2024-01-30T03:46:04;14.77;;;7.60;;
78555;SDS011;67851;51.354;7.744;2024-01-30T03:48:31;20.27;;;8.57;;
78555;SDS011;67851;51.354;7.744;2024-01-30T03:50:57;14.80;;;8.30;;
78555;SDS011;67851;51.354;7.744;2024-01-30T03:53:24;15.18;;;7.80;;
78555;SDS011;67851;51.354;7.744;2024-01-30T03:55:51;16.92;;;7.55;;
78555;SDS011;67851;51.354;7.744;2024-01-30T03:58:17;13.15;;;7.85;;
78555;SDS011;67851;51.354;7.744;2024-01-30T04:00:44;17.05;;;8.02;;
78555;SDS011;67851;51.354;7.744;2024-01-30T04:03:11;19.00;;;8.52;;
78555;SDS011;67851;51.354;7.744;2024-01-30T04:05:38;16.05;;;7.68;;
78555;SDS011;67851;51.354;7.744;2024-01-30T04:08:04;13.15;;;6.78;;
78555;SDS011;67851;51.354;7.744;2024-01-30T04:10:31;13.40;;;6.97;;
78555;SDS011;67851;51.354;7.744;2024-01-30T04:12:58;15.45;;;7.40;;
78555;SDS011;67851;51.354;7.744;2024-01-30T04:15:26;12.55;;;7.45;;
78555;SDS011;67851;51.354;7.744;2024-01-30T04:17:52;17.17;;;8.85;;
78555;SDS011;67851;51.354;7.744;2024-01-30T04:20:19;15.63;;;7.35;;
78555;SDS011;67851;51.354;7.744;2024-01-30T04:22:46;13.43;;;6.72;;
78555;SDS011;67851;51.354;7.744;2024-01-30T04:25:13;16.27;;;6.80;;
78555;SDS011;67851;51.354;7.744;2024-01-30T04:27:42;15.27;;;7.25;;
78555;SDS011;67851;51.354;7.744;2024-01-30T04:30:10;11.15;;;6.55;;
78555;SDS011;67851;51.354;7.744;2024-01-30T04:32:36;14.55;;;6.95;;
78555;SDS011;67851;51.354;7.744;2024-01-30T04:35:05;12.25;;;6.88;;
78555;SDS011;67851;51.354;7.744;2024-01-30T04:37:36;10.93;;;6.87;;
78555;SDS011;67851;51.354;7.744;2024-01-30T04:40:03;12.43;;;7.05;;
78555;SDS011;67851;51.354;7.744;2024-01-30T04:42:31;11.00;;;6.82;;
78555;SDS011;67851;51.354;7.744;2024-01-30T04:44:58;14.98;;;6.90;;
78555;SDS011;67851;51.354;7.744;2024-01-30T04:47:26;11.38;;;6.50;;
78555;SDS011;67851;51.354;7.744;2024-01-30T04:49:52;9.10;;;6.55;;
78555;SDS011;67851;51.354;7.744;2024-01-30T04:52:19;15.30;;;5.97;;
78555;SDS011;67851;51.354;7.744;2024-01-30T04:54:47;9.38;;;6.70;;
78555;SDS011;67851;51.354;7.744;2024-01-30T04:57:14;15.60;;;6.80;;
78555;SDS011;67851;51.354;7.744;2024-01-30T04:59:40;16.05;;;7.60;;
78555;SDS011;67851;51.354;7.744;2024-01-30T05:02:07;10.05;;;6.38;;
78555;SDS011;67851;51.354;7.744;2024-01-30T05:04:34;10.30;;;6.50;;
78555;SDS011;67851;51.354;7.744;2024-01-30T05:07:00;13.75;;;6.63;;
78555;SDS011;67851;51.354;7.744;2024-01-30T05:09:27;8.23;;;5.72;;
78555;SDS011;67851;51.354;7.744;2024-01-30T05:11:56;16.00;;;7.20;;
78555;SDS011;67851;51.354;7.744;2024-01-30T05:14:22;10.18;;;5.75;;
78555;SDS011;67851;51.354;7.744;2024-01-30T05:16:49;10.32;;;5.75;;
78555;SDS011;67851;51.354;7.744;2024-01-30T05:19:16;11.13;;;6.25;;
78555;SDS011;67851;51.354;7.744;2024-01-30T05:21:44;12.88;;;5.97;;
78555;SDS011;67851;51.354;7.744;2024-01-30T05:24:10;15.30;;;7.13;;
78555;SDS011;67851;51.354;7.744;2024-01-30T05:26:38;13.32;;;6.68;;
78555;SDS011;67851;51.354;7.744;2024-01-30T05:29:06;12.40;;;6.40;;
78555;SDS011;67851;51.354;7.744;2024-01-30T05:31:33;11.57;;;6.35;;
78555;SDS011;67851;51.354;7.744;2024-01-30T05:34:01;9.27;;;6.43;;
78555;SDS011;67851;51.354;7.744;2024-01-30T05:36:29;8.77;;;6.53;;
78555;SDS011;67851;51.354;7.744;2024-01-30T05:38:56;11.65;;;6.43;;
78555;SDS011;67851;51.354;7.744;2024-01-30T05:41:22;11.05;;;5.90;;
78555;SDS011;67851;51.354;7.744;2024-01-30T05:43:49;9.68;;;5.38;;
78555;SDS011;67851;51.354;7.744;2024-01-30T05:46:15;15.50;;;5.90;;
78555;SDS011;67851;51.354;7.744;2024-01-30T05:48:42;11.10;;;6.35;;
78555;SDS011;67851;51.354;7.744;2024-01-30T05:51:09;10.57;;;5.75;;
78555;SDS011;67851;51.354;7.744;2024-01-30T05:53:36;9.85;;;5.70;;
78555;SDS011;67851;51.354;7.744;2024-01-30T05:56:03;11.65;;;6.28;;
78555;SDS011;67851;51.354;7.744;2024-01-30T05:58:30;11.50;;;5.95;;
78555;SDS011;67851;51.354;7.744;2024-01-30T06:00:59;11.82;;;5.50;;
78555;SDS011;67851;51.354;7.744;2024-01-30T06:03:26;12.10;;;5.65;;
78555;SDS011;67851;51.354;7.744;2024-01-30T06:05:55;14.57;;;7.75;;
78555;SDS011;67851;51.354;7.744;2024-01-30T06:08:21;13.80;;;6.07;;
78555;SDS011;67851;51.354;7.744;2024-01-30T06:10:48;10.35;;;6.07;;
78555;SDS011;67851;51.354;7.744;2024-01-30T06:13:15;12.18;;;6.07;;
78555;SDS011;67851;51.354;7.744;2024-01-30T06:15:42;9.77;;;5.93;;
78555;SDS011;67851;51.354;7.744;2024-01-30T06:18:09;9.60;;;5.35;;
78555;SDS011;67851;51.354;7.744;2024-01-30T06:20:37;11.90;;;6.32;;
78555;SDS011;67851;51.354;7.744;2024-01-30T06:23:03;11.48;;;6.28;;
78555;SDS011;67851;51.354;7.744;2024-01-30T06:25:30;10.65;;;5.82;;
78555;SDS011;67851;51.354;7.744;2024-01-30T06:27:58;9.13;;;5.38;;
78555;SDS011;67851;51.354;7.744;2024-01-30T06:30:25;11.73;;;6.63;;
78555;SDS011;67851;51.354;7.744;2024-01-30T06:32:55;14.27;;;6.45;;
78555;SDS011;67851;51.354;7.744;2024-01-30T06:35:22;11.75;;;6.28;;
78555;SDS011;67851;51.354;7.744;2024-01-30T06:37:49;8.65;;;5.93;;
78555;SDS011;67851;51.354;7.744;2024-01-30T06:40:15;28.38;;;6.95;;
78555;SDS011;67851;51.354;7.744;2024-01-30T06:42:42;9.23;;;5.32;;
78555;SDS011;67851;51.354;7.744;2024-01-30T06:45:09;10.98;;;5.13;;
78555;SDS011;67851;51.354;7.744;2024-01-30T06:47:36;11.95;;;5.47;;
78555;SDS011;67851;51.354;7.744;2024-01-30T06:50:04;11.02;;;5.50;;
78555;SDS011;67851;51.354;7.744;2024-01-30T06:52:31;8.10;;;5.35;;
78555;SDS011;67851;51.354;7.744;2024-01-30T06:54:57;9.70;;;5.35;;
78555;SDS011;67851;51.354;7.744;2024-01-30T06:57:24;10.88;;;5.65;;
78555;SDS011;67851;51.354;7.744;2024-01-30T06:59:52;9.80;;;5.70;;
78555;SDS011;67851;51.354;7.744;2024-01-30T07:02:19;14.43;;;5.20;;
78555;SDS011;67851;51.354;7.744;2024-01-30T07:04:46;9.10;;;5.45;;
78555;SDS011;67851;51.354;7.744;2024-01-30T07:07:13;10.57;;;5.07;;
78555;SDS011;67851;51.354;7.744;2024-01-30T07:09:42;9.75;;;5.75;;
78555;SDS011;67851;51.354;7.744;2024-01-30T07:12:09;9.25;;;5.70;;
78555;SDS011;67851;51.354;7.744;2024-01-30T07:14:36;12.50;;;5.75;;
78555;SDS011;67851;51.354;7.744;2024-01-30T07:17:03;11.55;;;5.43;;
78555;SDS011;67851;51.354;7.744;2024-01-30T07:19:30;9.07;;;5.25;;
78555;SDS011;67851;51.354;7.744;2024-01-30T07:21:57;11.88;;;5.50;;
78555;SDS011;67851;51.354;7.744;2024-01-30T07:24:24;7.38;;;4.88;;
78555;SDS011;67851;51.354;7.744;2024-01-30T07:26:50;8.85;;;5.25;;
78555;SDS011;67851;51.354;7.744;2024-01-30T07:29:17;11.13;;;5.35;;
78555;SDS011;67851;51.354;7.744;2024-01-30T07:31:44;7.53;;;5.47;;
78555;SDS011;67851;51.354;7.744;2024-01-30T07:34:11;11.10;;;5.07;;
78555;SDS011;67851;51.354;7.744;2024-01-30T07:36:38;11.80;;;6.32;;
78555;SDS011;67851;51.354;7.744;2024-01-30T07:39:05;10.95;;;5.63;;
78555;SDS011;67851;51.354;7.744;2024-01-30T07:41:33;10.25;;;5.07;;
78555;SDS011;67851;51.354;7.744;2024-01-30T07:44:00;9.50;;;5.65;;
78555;SDS011;67851;51.354;7.744;2024-01-30T07:46:26;7.50;;;4.85;;
78555;SDS011;67851;51.354;7.744;2024-01-30T07:48:53;8.77;;;5.07;;
78555;SDS011;67851;51.354;7.744;2024-01-30T07:51:22;7.82;;;4.78;;
78555;SDS011;67851;51.354;7.744;2024-01-30T07:53:48;10.45;;;6.00;;
78555;SDS011;67851;51.354;7.744;2024-01-30T07:56:15;7.38;;;4.57;;
78555;SDS011;67851;51.354;7.744;2024-01-30T07:58:42;8.90;;;6.18;;
78555;SDS011;67851;51.354;7.744;2024-01-30T08:01:10;9.27;;;5.70;;
78555;SDS011;67851;51.354;7.744;2024-01-30T08:03:37;11.55;;;5.60;;
78555;SDS011;67851;51.354;7.744;2024-01-30T08:06:06;13.55;;;6.05;;
78555;SDS011;67851;51.354;7.744;2024-01-30T08:08:33;12.18;;;6.32;;
78555;SDS011;67851;51.354;7.744;2024-01-30T08:10:59;9.55;;;5.90;;
78555;SDS011;67851;51.354;7.744;2024-01-30T08:13:27;10.52;;;5.30;;
78555;SDS011;67851;51.354;7.744;2024-01-30T08:15:53;8.00;;;5.07;;
78555;SDS011;67851;51.354;7.744;2024-01-30T08:18:21;8.23;;;5.38;;
78555;SDS011;67851;51.354;7.744;2024-01-30T08:20:47;9.50;;;5.05;;
78555;SDS011;67851;51.354;7.744;2024-01-30T08:23:15;13.15;;;5.95;;
78555;SDS011;67851;51.354;7.744;2024-01-30T08:25:42;9.93;;;5.30;;
78555;SDS011;67851;51.354;7.744;2024-01-30T08:28:09;8.13;;;4.57;;
78555;SDS011;67851;51.354;7.744;2024-01-30T08:30:37;7.78;;;4.60;;
78555;SDS011;67851;51.354;7.744;2024-01-30T08:33:06;9.13;;;5.70;;
78555;SDS011;67851;51.354;7.744;2024-01-30T08:35:34;6.57;;;4.70;;
78555;SDS011;67851;51.354;7.744;2024-01-30T08:38:00;8.75;;;5.20;;
78555;SDS011;67851;51.354;7.744;2024-01-30T08:40:27;8.25;;;5.15;;
78555;SDS011;67851;51.354;7.744;2024-01-30T08:42:55;10.00;;;5.20;;
78555;SDS011;67851;51.354;7.744;2024-01-30T08:45:22;8.23;;;5.25;;
78555;SDS011;67851;51.354;7.744;2024-01-30T08:47:49;8.68;;;5.40;;
78555;SDS011;67851;51.354;7.744;2024-01-30T08:50:16;9.40;;;4.70;;
78555;SDS011;67851;51.354;7.744;2024-01-30T08:52:43;9.13;;;4.78;;
78555;SDS011;67851;51.354;7.744;2024-01-30T08:55:12;8.73;;;4.97;;
78555;SDS011;67851;51.354;7.744;2024-01-30T08:57:39;11.25;;;5.40;;
78555;SDS011;67851;51.354;7.744;2024-01-30T09:00:11;11.27;;;5.03;;
78555;SDS011;67851;51.354;7.744;2024-01-30T09:02:41;7.70;;;4.83;;
78555;SDS011;67851;51.354;7.744;2024-01-30T09:05:08;10.02;;;4.88;;
78555;SDS011;67851;51.354;7.744;2024-01-30T09:07:35;8.45;;;4.47;;
78555;SDS011;67851;51.354;7.744;2024-01-30T09:10:02;8.77;;;4.85;;
78555;SDS011;67851;51.354;7.744;2024-01-30T09:12:30;8.82;;;5.25;;
78555;SDS011;67851;51.354;7.744;2024-01-30T09:14:58;11.50;;;4.65;;
78555;SDS011;67851;51.354;7.744;2024-01-30T09:17:26;14.25;;;5.97;;
78555;SDS011;67851;51.354;7.744;2024-01-30T09:19:53;10.63;;;4.72;;
78555;SDS011;67851;51.354;7.744;2024-01-30T09:22:20;9.18;;;4.63;;
78555;SDS011;67851;51.354;7.744;2024-01-30T09:24:46;12.52;;;5.32;;
78555;SDS011;67851;51.354;7.744;2024-01-30T09:27:13;8.40;;;4.95;;
78555;SDS011;67851;51.354;7.744;2024-01-30T09:29:40;9.15;;;4.78;;
78555;SDS011;67851;51.354;7.744;2024-01-30T09:32:08;8.73;;;4.88;;
78555;SDS011;67851;51.354;7.744;2024-01-30T09:34:35;8.15;;;4.80;;
78555;SDS011;67851;51.354;7.744;2024-01-30T09:37:04;12.27;;;5.05;;
78555;SDS011;67851;51.354;7.744;2024-01-30T09:39:30;8.23;;;4.60;;
78555;SDS011;67851;51.354;7.744;2024-01-30T09:44:51;8.07;;;4.32;;
78555;SDS011;67851;51.354;7.744;2024-01-30T09:47:19;12.90;;;5.68;;
78555;SDS011;67851;51.354;7.744;2024-01-30T09:49:46;9.93;;;4.57;;
78555;SDS011;67851;51.354;7.744;2024-01-30T09:52:14;9.50;;;4.35;;
78555;SDS011;67851;51.354;7.744;2024-01-30T09:54:41;9.07;;;4.28;;
78555;SDS011;67851;51.354;7.744;2024-01-30T09:57:08;7.90;;;4.07;;
78555;SDS011;67851;51.354;7.744;2024-01-30T09:59:36;9.65;;;4.28;;
78555;SDS011;67851;51.354;7.744;2024-01-30T10:02:03;9.23;;;4.75;;
78555;SDS011;67851;51.354;7.744;2024-01-30T10:04:30;7.70;;;4.60;;
78555;SDS011;67851;51.354;7.744;2024-01-30T10:06:57;10.30;;;4.97;;
78555;SDS011;67851;51.354;7.744;2024-01-30T10:09:33;11.63;;;5.22;;
78555;SDS011;67851;51.354;7.744;2024-01-30T10:12:01;8.90;;;4.28;;
78555;SDS011;67851;51.354;7.744;2024-01-30T10:14:30;11.82;;;4.70;;
78555;SDS011;67851;51.354;7.744;2024-01-30T10:16:57;8.48;;;5.05;;
78555;SDS011;67851;51.354;7.744;2024-01-30T10:19:24;11.40;;;5.15;;
78555;SDS011;67851;51.354;7.744;2024-01-30T10:21:52;7.95;;;4.43;;
78555;SDS011;67851;51.354;7.744;2024-01-30T10:24:23;8.50;;;4.80;;
78555;SDS011;67851;51.354;7.744;2024-01-30T10:26:50;7.43;;;4.67;;
78555;SDS011;67851;51.354;7.744;2024-01-30T10:29:17;9.57;;;4.57;;
78555;SDS011;67851;51.354;7.744;2024-01-30T10:31:44;9.20;;;4.20;;
78555;SDS011;67851;51.354;7.744;2024-01-30T10:34:11;7.32;;;4.20;;
78555;SDS011;67851;51.354;7.744;2024-01-30T10:36:48;7.60;;;4.20;;
78555;SDS011;67851;51.354;7.744;2024-01-30T10:39:17;7.32;;;4.22;;
78555;SDS011;67851;51.354;7.744;2024-01-30T10:41:45;8.93;;;4.63;;
78555;SDS011;67851;51.354;7.744;2024-01-30T10:44:15;8.75;;;4.60;;
78555;SDS011;67851;51.354;7.744;2024-01-30T10:46:45;8.20;;;4.68;;
78555;SDS011;67851;51.354;7.744;2024-01-30T10:49:17;12.90;;;5.65;;
78555;SDS011;67851;51.354;7.744;2024-01-30T10:51:44;8.35;;;4.65;;
78555;SDS011;67851;51.354;7.744;2024-01-30T10:54:12;10.57;;;5.82;;
78555;SDS011;67851;51.354;7.744;2024-01-30T10:56:42;10.38;;;4.78;;
78555;SDS011;67851;51.354;7.744;2024-01-30T10:59:09;9.30;;;4.63;;
78555;SDS011;67851;51.354;7.744;2024-01-30T11:01:38;7.25;;;4.60;;
78555;SDS011;67851;51.354;7.744;2024-01-30T11:04:04;10.57;;;4.88;;
78555;SDS011;67851;51.354;7.744;2024-01-30T11:06:31;9.18;;;4.82;;
78555;SDS011;67851;51.354;7.744;2024-01-30T11:09:02;6.97;;;4.43;;
78555;SDS011;67851;51.354;7.744;2024-01-30T11:11:48;8.88;;;4.57;;
78555;SDS011;67851;51.354;7.744;2024-01-30T11:14:25;9.55;;;4.75;;
78555;SDS011;67851;51.354;7.744;2024-01-30T11:16:52;8.45;;;4.90;;
78555;SDS011;67851;51.354;7.744;2024-01-30T11:19:23;10.77;;;4.43;;
78555;SDS011;67851;51.354;7.744;2024-01-30T11:21:52;9.65;;;4.20;;
78555;SDS011;67851;51.354;7.744;2024-01-30T11:24:24;11.32;;;4.53;;
78555;SDS011;67851;51.354;7.744;2024-01-30T11:26:57;8.50;;;5.07;;
78555;SDS011;67851;51.354;7.744;2024-01-30T11:29:25;9.23;;;4.97;;
78555;SDS011;67851;51.354;7.744;2024-01-30T11:31:54;11.75;;;5.25;;
78555;SDS011;67851;51.354;7.744;2024-01-30T11:34:21;10.43;;;5.03;;
78555;SDS011;67851;51.354;7.744;2024-01-30T11:36:51;10.77;;;5.20;;
78555;SDS011;67851;51.354;7.744;2024-01-30T11:39:26;11.48;;;5.88;;
78555;SDS011;67851;51.354;7.744;2024-01-30T11:41:54;16.30;;;5.53;;
78555;SDS011;67851;51.354;7.744;2024-01-30T11:44:22;9.57;;;4.80;;
78555;SDS011;67851;51.354;7.744;2024-01-30T11:46:49;8.93;;;5.05;;
78555;SDS011;67851;51.354;7.744;2024-01-30T11:49:17;10.50;;;4.90;;
78555;SDS011;67851;51.354;7.744;2024-01-30T11:51:48;12.32;;;5.05;;
78555;SDS011;67851;51.354;7.744;2024-01-30T11:54:18;12.65;;;5.55;;
78555;SDS011;67851;51.354;7.744;2024-01-30T11:56:46;14.70;;;5.28;;
78555;SDS011;67851;51.354;7.744;2024-01-30T11:59:13;11.27;;;5.45;;
78555;SDS011;67851;51.354;7.744;2024-01-30T12:01:40;13.07;;;4.90;;
78555;SDS011;67851;51.354;7.744;2024-01-30T12:04:07;11.57;;;4.40;;
78555;SDS011;67851;51.354;7.744;2024-01-30T12:06:36;11.50;;;4.97;;
78555;SDS011;67851;51.354;7.744;2024-01-30T12:09:04;15.15;;;5.18;;
78555;SDS011;67851;51.354;7.744;2024-01-30T12:11:30;9.93;;;5.40;;
78555;SDS011;67851;51.354;7.744;2024-01-30T12:13:57;13.27;;;5.68;;
78555;SDS011;67851;51.354;7.744;2024-01-30T12:16:24;13.48;;;5.65;;
78555;SDS011;67851;51.354;7.744;2024-01-30T12:18:59;14.85;;;6.18;;
78555;SDS011;67851;51.354;7.744;2024-01-30T12:21:27;10.38;;;5.25;;
78555;SDS011;67851;51.354;7.744;2024-01-30T12:23:56;13.43;;;5.68;;
78555;SDS011;67851;51.354;7.744;2024-01-30T12:26:23;12.55;;;4.97;;
78555;SDS011;67851;51.354;7.744;2024-01-30T12:28:55;11.60;;;4.82;;
78555;SDS011;67851;51.354;7.744;2024-01-30T12:31:26;13.52;;;5.03;;
78555;SDS011;67851;51.354;7.744;2024-01-30T12:33:59;13.68;;;4.95;;
78555;SDS011;67851;51.354;7.744;2024-01-30T12:36:26;13.50;;;5.35;;
78555;SDS011;67851;51.354;7.744;2024-01-30T12:38:55;11.60;;;5.18;;
78555;SDS011;67851;51.354;7.744;2024-01-30T12:41:24;14.68;;;5.60;;
78555;SDS011;67851;51.354;7.744;2024-01-30T12:43:56;15.00;;;5.30;;
78555;SDS011;67851;51.354;7.744;2024-01-30T12:46:27;11.98;;;5.53;;
78555;SDS011;67851;51.354;7.744;2024-01-30T12:48:55;11.30;;;4.68;;
78555;SDS011;67851;51.354;7.744;2024-01-30T12:51:22;10.50;;;5.28;;
78555;SDS011;67851;51.354;7.744;2024-01-30T12:53:50;14.65;;;5.32;;
78555;SDS011;67851;51.354;7.744;2024-01-30T12:56:17;15.68;;;5.82;;
78555;SDS011;67851;51.354;7.744;2024-01-30T12:58:44;16.88;;;5.90;;
78555;SDS011;67851;51.354;7.744;2024-01-30T13:01:14;17.90;;;6.55;;
78555;SDS011;67851;51.354;7.744;2024-01-30T13:03:41;14.05;;;5.75;;
78555;SDS011;67851;51.354;7.744;2024-01-30T13:06:08;12.00;;;5.93;;
78555;SDS011;67851;51.354;7.744;2024-01-30T13:08:35;14.88;;;6.25;;
78555;SDS011;67851;51.354;7.744;2024-01-30T13:11:02;16.75;;;6.05;;
78555;SDS011;67851;51.354;7.744;2024-01-30T13:13:28;15.73;;;6.35;;
78555;SDS011;67851;51.354;7.744;2024-01-30T13:15:55;14.90;;;5.82;;
78555;SDS011;67851;51.354;7.744;2024-01-30T13:18:22;17.90;;;6.18;;
78555;SDS011;67851;51.354;7.744;2024-01-30T13:20:49;11.52;;;6.28;;
78555;SDS011;67851;51.354;7.744;2024-01-30T13:23:17;16.33;;;6.00;;
78555;SDS011;67851;51.354;7.744;2024-01-30T13:25:45;15.57;;;6.13;;
78555;SDS011;67851;51.354;7.744;2024-01-30T13:28:12;17.88;;;6.95;;
78555;SDS011;67851;51.354;7.744;2024-01-30T13:30:39;14.88;;;6.22;;
78555;SDS011;67851;51.354;7.744;2024-01-30T13:33:06;10.95;;;6.38;;
78555;SDS011;67851;51.354;7.744;2024-01-30T13:35:32;20.30;;;7.28;;
78555;SDS011;67851;51.354;7.744;2024-01-30T13:37:59;14.38;;;7.00;;
78555;SDS011;67851;51.354;7.744;2024-01-30T13:40:26;13.00;;;7.57;;
78555;SDS011;67851;51.354;7.744;2024-01-30T13:42:52;18.75;;;8.68;;
78555;SDS011;67851;51.354;7.744;2024-01-30T13:45:19;15.02;;;8.07;;
78555;SDS011;67851;51.354;7.744;2024-01-30T13:47:49;12.57;;;7.53;;
78555;SDS011;67851;51.354;7.744;2024-01-30T13:50:15;18.17;;;7.45;;
78555;SDS011;67851;51.354;7.744;2024-01-30T13:52:43;18.05;;;7.82;;
78555;SDS011;67851;51.354;7.744;2024-01-30T13:55:11;14.45;;;7.80;;
78555;SDS011;67851;51.354;7.744;2024-01-30T13:57:40;17.90;;;8.75;;
78555;SDS011;67851;51.354;7.744;2024-01-30T14:00:08;19.95;;;8.27;;
78555;SDS011;67851;51.354;7.744;2024-01-30T14:02:39;17.90;;;9.20;;
78555;SDS011;67851;51.354;7.744;2024-01-30T14:05:06;17.50;;;8.88;;
78555;SDS011;67851;51.354;7.744;2024-01-30T14:07:35;14.57;;;8.80;;
78555;SDS011;67851;51.354;7.744;2024-01-30T14:10:02;14.48;;;8.80;;
78555;SDS011;67851;51.354;7.744;2024-01-30T14:12:37;19.85;;;10.93;;
78555;SDS011;67851;51.354;7.744;2024-01-30T14:15:04;18.83;;;8.82;;
78555;SDS011;67851;51.354;7.744;2024-01-30T14:17:48;23.38;;;9.68;;
78555;SDS011;67851;51.354;7.744;2024-01-30T14:20:16;16.17;;;10.18;;
78555;SDS011;67851;51.354;7.744;2024-01-30T14:22:43;23.63;;;11.55;;
78555;SDS011;67851;51.354;7.744;2024-01-30T14:25:10;24.95;;;10.68;;
78555;SDS011;67851;51.354;7.744;2024-01-30T14:27:39;22.88;;;11.95;;
78555;SDS011;67851;51.354;7.744;2024-01-30T14:30:06;22.05;;;12.38;;
78555;SDS011;67851;51.354;7.744;2024-01-30T14:32:34;23.65;;;13.60;;
78555;SDS011;67851;51.354;7.744;2024-01-30T14:35:01;23.33;;;13.57;;
78555;SDS011;67851;51.354;7.744;2024-01-30T14:37:28;22.38;;;14.70;;
78555;SDS011;67851;51.354;7.744;2024-01-30T14:39:56;22.70;;;14.25;;